sensor_id;sensor_type;location;lat;lon;timestamp;pressure;altitude;pressure_sealevel;temperature;humidity
46211;BME280;52144;48.040;-1.594;2023-11-19T00:00:17;101186.31;;;18.40;100.00
46211;BME280;52144;48.040;-1.594;2023-11-19T00:02:45;101183.59;;;18.27;100.00
46211;BME280;52144;48.040;-1.594;2023-11-19T00:05:14;101185.31;;;18.15;100.00
46211;BME280;52144;48.040;-1.594;2023-11-19T00:07:42;101188.47;;;17.96;100.00
46211;BME280;52144;48.040;-1.594;2023-11-19T00:10:11;101185.88;;;18.20;100.00
46211;BME280;52144;48.040;-1.594;2023-11-19T00:12:40;101191.06;;;17.98;100.00
46211;BME280;52144;48.040;-1.594;2023-11-19T00:15:10;101195.16;;;18.29;100.00
46211;BME280;52144;48.040;-1.594;2023-11-19T00:17:39;101196.78;;;18.44;100.00
46211;BME280;52144;48.040;-1.594;2023-11-19T00:20:12;101190.09;;;18.24;100.00
46211;BME280;52144;48.040;-1.594;2023-11-19T00:22:40;101180.13;;;18.51;100.00
46211;BME280;52144;48.040;-1.594;2023-11-19T00:25:11;101186.72;;;18.47;100.00
46211;BME280;52144;48.040;-1.594;2023-11-19T00:27:39;101186.22;;;18.16;100.00
46211;BME280;52144;48.040;-1.594;2023-11-19T00:30:13;101183.28;;;18.06;100.00
46211;BME280;52144;48.040;-1.594;2023-11-19T00:32:41;101175.69;;;17.73;100.00
46211;BME280;52144;48.040;-1.594;2023-11-19T00:35:09;101170.47;;;18.10;100.00
46211;BME280;52144;48.040;-1.594;2023-11-19T00:37:37;101171.53;;;17.94;100.00
46211;BME280;52144;48.040;-1.594;2023-11-19T00:40:07;101173.16;;;18.10;100.00
46211;BME280;52144;48.040;-1.594;2023-11-19T00:42:37;101175.84;;;17.97;100.00
46211;BME280;52144;48.040;-1.594;2023-11-19T00:45:05;101178.22;;;17.49;100.00
46211;BME280;52144;48.040;-1.594;2023-11-19T00:47:37;101176.66;;;17.72;100.00
46211;BME280;52144;48.040;-1.594;2023-11-19T00:50:06;101174.13;;;17.56;100.00
46211;BME280;52144;48.040;-1.594;2023-11-19T00:52:36;101178.50;;;17.44;100.00
46211;BME280;52144;48.040;-1.594;2023-11-19T00:55:05;101174.88;;;17.58;100.00
46211;BME280;52144;48.040;-1.594;2023-11-19T00:57:33;101173.69;;;17.49;100.00
46211;BME280;52144;48.040;-1.594;2023-11-19T01:00:02;101166.97;;;17.82;100.00
46211;BME280;52144;48.040;-1.594;2023-11-19T01:02:35;101180.28;;;17.98;100.00
46211;BME280;52144;48.040;-1.594;2023-11-19T01:05:08;101191.97;;;17.71;99.81
46211;BME280;52144;48.040;-1.594;2023-11-19T01:07:36;101186.19;;;17.50;100.00
46211;BME280;52144;48.040;-1.594;2023-11-19T01:10:05;101179.41;;;17.57;100.00
46211;BME280;52144;48.040;-1.594;2023-11-19T01:12:33;101186.13;;;17.24;100.00
46211;BME280;52144;48.040;-1.594;2023-11-19T01:15:01;101197.25;;;17.73;100.00
46211;BME280;52144;48.040;-1.594;2023-11-19T01:17:29;101199.41;;;17.80;99.18
46211;BME280;52144;48.040;-1.594;2023-11-19T01:19:58;101187.38;;;17.86;99.16
46211;BME280;52144;48.040;-1.594;2023-11-19T01:22:27;101194.84;;;17.95;99.24
46211;BME280;52144;48.040;-1.594;2023-11-19T01:24:55;101196.59;;;17.82;100.00
46211;BME280;52144;48.040;-1.594;2023-11-19T01:27:24;101203.22;;;17.91;99.51
46211;BME280;52144;48.040;-1.594;2023-11-19T01:29:52;101199.72;;;17.63;100.00
46211;BME280;52144;48.040;-1.594;2023-11-19T01:32:20;101207.59;;;17.39;100.00
46211;BME280;52144;48.040;-1.594;2023-11-19T01:34:47;101213.28;;;18.01;97.81
46211;BME280;52144;48.040;-1.594;2023-11-19T01:37:15;101224.94;;;18.02;98.47
46211;BME280;52144;48.040;-1.594;2023-11-19T01:39:45;101209.25;;;17.54;100.00
46211;BME280;52144;48.040;-1.594;2023-11-19T01:42:24;101217.41;;;17.80;99.87
46211;BME280;52144;48.040;-1.594;2023-11-19T01:44:58;101218.00;;;17.85;97.55
46211;BME280;52144;48.040;-1.594;2023-11-19T01:47:26;101211.06;;;17.81;98.72
46211;BME280;52144;48.040;-1.594;2023-11-19T01:49:56;101220.53;;;17.74;100.00
46211;BME280;52144;48.040;-1.594;2023-11-19T01:52:25;101222.69;;;17.81;99.63
46211;BME280;52144;48.040;-1.594;2023-11-19T01:54:55;101225.78;;;18.02;98.49
46211;BME280;52144;48.040;-1.594;2023-11-19T01:57:23;101226.09;;;17.98;96.99
46211;BME280;52144;48.040;-1.594;2023-11-19T01:59:52;101220.69;;;17.58;99.82
46211;BME280;52144;48.040;-1.594;2023-11-19T02:02:20;101221.91;;;17.67;99.83
46211;BME280;52144;48.040;-1.594;2023-11-19T02:04:49;101220.25;;;17.51;98.54
46211;BME280;52144;48.040;-1.594;2023-11-19T02:07:18;101223.59;;;17.95;97.39
46211;BME280;52144;48.040;-1.594;2023-11-19T02:09:47;101227.28;;;17.27;100.00
46211;BME280;52144;48.040;-1.594;2023-11-19T02:12:16;101220.53;;;17.19;100.00
46211;BME280;52144;48.040;-1.594;2023-11-19T02:14:43;101206.13;;;17.60;98.90
46211;BME280;52144;48.040;-1.594;2023-11-19T02:17:25;101212.53;;;16.76;100.00
46211;BME280;52144;48.040;-1.594;2023-11-19T02:19:54;101201.66;;;17.34;99.72
46211;BME280;52144;48.040;-1.594;2023-11-19T02:22:22;101199.56;;;17.52;97.94
46211;BME280;52144;48.040;-1.594;2023-11-19T02:24:51;101190.81;;;17.48;98.00
46211;BME280;52144;48.040;-1.594;2023-11-19T02:27:29;101196.75;;;16.99;100.00
46211;BME280;52144;48.040;-1.594;2023-11-19T02:29:59;101191.03;;;17.45;98.72
46211;BME280;52144;48.040;-1.594;2023-11-19T02:32:27;101194.69;;;17.17;99.33
46211;BME280;52144;48.040;-1.594;2023-11-19T02:34:57;101202.69;;;17.18;98.99
46211;BME280;52144;48.040;-1.594;2023-11-19T02:37:34;101199.53;;;17.39;97.56
46211;BME280;52144;48.040;-1.594;2023-11-19T02:40:01;101199.00;;;17.19;98.28
46211;BME280;52144;48.040;-1.594;2023-11-19T02:42:31;101205.09;;;17.36;97.27
46211;BME280;52144;48.040;-1.594;2023-11-19T02:45:01;101195.41;;;17.06;100.00
46211;BME280;52144;48.040;-1.594;2023-11-19T02:47:33;101200.75;;;17.20;98.52
46211;BME280;52144;48.040;-1.594;2023-11-19T02:50:01;101203.53;;;16.92;100.00
46211;BME280;52144;48.040;-1.594;2023-11-19T02:52:29;101206.63;;;17.13;98.03
46211;BME280;52144;48.040;-1.594;2023-11-19T02:55:01;101200.34;;;17.27;97.10
46211;BME280;52144;48.040;-1.594;2023-11-19T02:57:30;101200.13;;;17.30;96.51
46211;BME280;52144;48.040;-1.594;2023-11-19T02:59:58;101198.06;;;17.20;97.81
46211;BME280;52144;48.040;-1.594;2023-11-19T03:02:28;101203.69;;;16.74;99.69
46211;BME280;52144;48.040;-1.594;2023-11-19T03:05:00;101202.28;;;17.24;97.04
46211;BME280;52144;48.040;-1.594;2023-11-19T03:07:29;101199.41;;;17.13;96.71
46211;BME280;52144;48.040;-1.594;2023-11-19T03:09:57;101197.41;;;16.61;99.36
46211;BME280;52144;48.040;-1.594;2023-11-19T03:12:25;101199.69;;;16.67;98.44
46211;BME280;52144;48.040;-1.594;2023-11-19T03:14:54;101197.16;;;16.93;96.83
46211;BME280;52144;48.040;-1.594;2023-11-19T03:17:22;101187.75;;;17.00;97.67
46211;BME280;52144;48.040;-1.594;2023-11-19T03:19:52;101185.44;;;16.79;96.20
46211;BME280;52144;48.040;-1.594;2023-11-19T03:22:19;101177.78;;;17.15;95.43
46211;BME280;52144;48.040;-1.594;2023-11-19T03:24:50;101190.47;;;16.71;96.26
46211;BME280;52144;48.040;-1.594;2023-11-19T03:27:18;101186.88;;;16.71;96.60
46211;BME280;52144;48.040;-1.594;2023-11-19T03:29:46;101178.38;;;17.05;95.53
46211;BME280;52144;48.040;-1.594;2023-11-19T03:32:13;101194.78;;;16.88;95.46
46211;BME280;52144;48.040;-1.594;2023-11-19T03:34:41;101193.97;;;17.00;96.44
46211;BME280;52144;48.040;-1.594;2023-11-19T03:37:10;101198.31;;;16.74;96.62
46211;BME280;52144;48.040;-1.594;2023-11-19T03:39:39;101204.28;;;16.94;97.03
46211;BME280;52144;48.040;-1.594;2023-11-19T03:42:07;101200.09;;;16.47;97.57
46211;BME280;52144;48.040;-1.594;2023-11-19T03:44:34;101198.72;;;16.68;97.93
46211;BME280;52144;48.040;-1.594;2023-11-19T03:47:01;101196.03;;;16.68;97.50
46211;BME280;52144;48.040;-1.594;2023-11-19T03:49:29;101188.81;;;16.69;97.36
46211;BME280;52144;48.040;-1.594;2023-11-19T03:51:57;101182.03;;;16.49;97.52
46211;BME280;52144;48.040;-1.594;2023-11-19T03:54:27;101186.59;;;16.75;96.37
46211;BME280;52144;48.040;-1.594;2023-11-19T03:56:54;101192.00;;;16.61;96.11
46211;BME280;52144;48.040;-1.594;2023-11-19T03:59:22;101184.34;;;16.55;97.70
46211;BME280;52144;48.040;-1.594;2023-11-19T04:01:50;101178.31;;;16.78;96.21
46211;BME280;52144;48.040;-1.594;2023-11-19T04:04:20;101189.31;;;16.75;96.18
46211;BME280;52144;48.040;-1.594;2023-11-19T04:06:48;101184.78;;;16.76;95.38
46211;BME280;52144;48.040;-1.594;2023-11-19T04:09:15;101190.88;;;16.51;96.96
46211;BME280;52144;48.040;-1.594;2023-11-19T04:11:45;101197.09;;;16.22;99.24
46211;BME280;52144;48.040;-1.594;2023-11-19T04:14:14;101177.22;;;16.54;97.34
46211;BME280;52144;48.040;-1.594;2023-11-19T04:16:44;101175.69;;;16.50;97.02
46211;BME280;52144;48.040;-1.594;2023-11-19T04:19:13;101189.31;;;16.90;94.24
46211;BME280;52144;48.040;-1.594;2023-11-19T04:21:40;101193.91;;;16.73;95.41
46211;BME280;52144;48.040;-1.594;2023-11-19T04:24:09;101192.00;;;16.32;98.13
46211;BME280;52144;48.040;-1.594;2023-11-19T04:26:40;101190.25;;;16.02;100.00
46211;BME280;52144;48.040;-1.594;2023-11-19T04:29:11;101177.03;;;16.42;97.47
46211;BME280;52144;48.040;-1.594;2023-11-19T04:31:39;101194.97;;;16.28;97.21
46211;BME280;52144;48.040;-1.594;2023-11-19T04:34:07;101187.28;;;16.64;95.51
46211;BME280;52144;48.040;-1.594;2023-11-19T04:36:35;101181.25;;;16.47;97.21
46211;BME280;52144;48.040;-1.594;2023-11-19T04:39:04;101183.94;;;16.18;97.94
46211;BME280;52144;48.040;-1.594;2023-11-19T04:41:36;101185.84;;;16.73;93.33
46211;BME280;52144;48.040;-1.594;2023-11-19T04:44:04;101198.66;;;16.41;97.15
46211;BME280;52144;48.040;-1.594;2023-11-19T04:46:33;101196.63;;;16.44;97.36
46211;BME280;52144;48.040;-1.594;2023-11-19T04:49:01;101192.28;;;16.56;96.47
46211;BME280;52144;48.040;-1.594;2023-11-19T04:51:29;101192.09;;;16.59;94.67
46211;BME280;52144;48.040;-1.594;2023-11-19T04:53:56;101193.53;;;16.36;94.32
46211;BME280;52144;48.040;-1.594;2023-11-19T04:56:24;101190.84;;;16.36;94.83
46211;BME280;52144;48.040;-1.594;2023-11-19T04:58:52;101200.03;;;16.03;98.86
46211;BME280;52144;48.040;-1.594;2023-11-19T05:01:20;101201.78;;;16.04;98.86
46211;BME280;52144;48.040;-1.594;2023-11-19T05:03:49;101209.31;;;16.42;95.23
46211;BME280;52144;48.040;-1.594;2023-11-19T05:06:17;101215.63;;;16.56;96.33
46211;BME280;52144;48.040;-1.594;2023-11-19T05:08:45;101218.16;;;16.59;96.03
46211;BME280;52144;48.040;-1.594;2023-11-19T05:11:13;101210.25;;;16.56;97.91
46211;BME280;52144;48.040;-1.594;2023-11-19T05:13:44;101212.47;;;16.63;96.80
46211;BME280;52144;48.040;-1.594;2023-11-19T05:16:12;101216.00;;;16.78;93.99
46211;BME280;52144;48.040;-1.594;2023-11-19T05:18:41;101207.06;;;16.78;93.97
46211;BME280;52144;48.040;-1.594;2023-11-19T05:21:11;101220.63;;;16.91;94.66
46211;BME280;52144;48.040;-1.594;2023-11-19T05:23:39;101223.13;;;16.94;93.75
46211;BME280;52144;48.040;-1.594;2023-11-19T05:26:08;101220.84;;;16.88;93.96
46211;BME280;52144;48.040;-1.594;2023-11-19T05:28:37;101230.16;;;16.68;95.89
46211;BME280;52144;48.040;-1.594;2023-11-19T05:31:05;101239.66;;;16.59;96.84
46211;BME280;52144;48.040;-1.594;2023-11-19T05:33:33;101235.59;;;16.80;94.76
46211;BME280;52144;48.040;-1.594;2023-11-19T05:36:01;101251.28;;;16.45;96.54
46211;BME280;52144;48.040;-1.594;2023-11-19T05:38:31;101240.31;;;16.77;95.85
46211;BME280;52144;48.040;-1.594;2023-11-19T05:40:59;101242.81;;;16.65;95.19
46211;BME280;52144;48.040;-1.594;2023-11-19T05:43:26;101246.84;;;16.73;94.49
46211;BME280;52144;48.040;-1.594;2023-11-19T05:45:55;101246.19;;;16.98;93.52
46211;BME280;52144;48.040;-1.594;2023-11-19T05:48:23;101246.59;;;16.49;96.76
46211;BME280;52144;48.040;-1.594;2023-11-19T05:50:51;101257.72;;;16.42;96.57
46211;BME280;52144;48.040;-1.594;2023-11-19T05:53:19;101254.06;;;16.72;96.03
46211;BME280;52144;48.040;-1.594;2023-11-19T05:55:48;101253.28;;;16.70;93.81
46211;BME280;52144;48.040;-1.594;2023-11-19T05:58:23;101242.47;;;16.86;94.59
46211;BME280;52144;48.040;-1.594;2023-11-19T06:00:52;101252.91;;;16.91;91.00
46211;BME280;52144;48.040;-1.594;2023-11-19T06:03:20;101254.06;;;16.72;92.22
46211;BME280;52144;48.040;-1.594;2023-11-19T06:05:48;101255.19;;;16.11;97.17
46211;BME280;52144;48.040;-1.594;2023-11-19T06:08:16;101252.53;;;16.54;94.10
46211;BME280;52144;48.040;-1.594;2023-11-19T06:10:44;101254.56;;;16.05;97.29
46211;BME280;52144;48.040;-1.594;2023-11-19T06:13:14;101260.56;;;16.25;97.74
46211;BME280;52144;48.040;-1.594;2023-11-19T06:15:42;101254.78;;;16.02;96.86
46211;BME280;52144;48.040;-1.594;2023-11-19T06:18:10;101254.50;;;16.21;97.92
46211;BME280;52144;48.040;-1.594;2023-11-19T06:20:39;101254.75;;;16.47;94.32
46211;BME280;52144;48.040;-1.594;2023-11-19T06:23:09;101257.13;;;16.52;93.33
46211;BME280;52144;48.040;-1.594;2023-11-19T06:25:37;101251.59;;;16.55;96.79
46211;BME280;52144;48.040;-1.594;2023-11-19T06:28:05;101258.69;;;16.56;95.81
46211;BME280;52144;48.040;-1.594;2023-11-19T06:30:34;101253.81;;;16.18;96.58
46211;BME280;52144;48.040;-1.594;2023-11-19T06:33:03;101249.66;;;16.42;95.37
46211;BME280;52144;48.040;-1.594;2023-11-19T06:35:31;101254.25;;;16.40;96.90
46211;BME280;52144;48.040;-1.594;2023-11-19T06:38:03;101252.34;;;16.71;95.60
46211;BME280;52144;48.040;-1.594;2023-11-19T06:40:31;101252.53;;;16.54;96.34
46211;BME280;52144;48.040;-1.594;2023-11-19T06:42:59;101257.53;;;16.60;95.55
46211;BME280;52144;48.040;-1.594;2023-11-19T06:45:27;101252.06;;;16.61;95.07
46211;BME280;52144;48.040;-1.594;2023-11-19T06:47:56;101253.38;;;16.40;95.52
46211;BME280;52144;48.040;-1.594;2023-11-19T06:50:25;101264.66;;;16.47;94.57
46211;BME280;52144;48.040;-1.594;2023-11-19T06:52:52;101258.28;;;16.48;97.49
46211;BME280;52144;48.040;-1.594;2023-11-19T06:55:20;101259.06;;;16.50;94.80
46211;BME280;52144;48.040;-1.594;2023-11-19T06:57:48;101265.81;;;16.57;94.54
46211;BME280;52144;48.040;-1.594;2023-11-19T07:00:16;101260.59;;;16.39;95.05
46211;BME280;52144;48.040;-1.594;2023-11-19T07:02:44;101261.72;;;16.21;97.03
46211;BME280;52144;48.040;-1.594;2023-11-19T07:05:14;101267.13;;;16.35;97.71
46211;BME280;52144;48.040;-1.594;2023-11-19T07:07:41;101272.28;;;16.38;97.59
46211;BME280;52144;48.040;-1.594;2023-11-19T07:10:09;101277.91;;;16.64;96.03
46211;BME280;52144;48.040;-1.594;2023-11-19T07:12:37;101276.34;;;16.60;95.42
46211;BME280;52144;48.040;-1.594;2023-11-19T07:15:06;101278.28;;;16.58;94.76
46211;BME280;52144;48.040;-1.594;2023-11-19T07:17:35;101278.88;;;16.49;94.56
46211;BME280;52144;48.040;-1.594;2023-11-19T07:20:04;101287.97;;;16.60;95.61
46211;BME280;52144;48.040;-1.594;2023-11-19T07:22:33;101285.28;;;16.60;94.72
46211;BME280;52144;48.040;-1.594;2023-11-19T07:25:01;101281.06;;;16.56;95.55
46211;BME280;52144;48.040;-1.594;2023-11-19T07:27:29;101290.50;;;16.63;92.97
46211;BME280;52144;48.040;-1.594;2023-11-19T07:29:57;101285.78;;;16.53;93.70
46211;BME280;52144;48.040;-1.594;2023-11-19T07:32:25;101288.28;;;16.56;91.50
46211;BME280;52144;48.040;-1.594;2023-11-19T07:34:52;101294.19;;;16.32;92.28
46211;BME280;52144;48.040;-1.594;2023-11-19T07:37:20;101293.38;;;16.16;91.77
46211;BME280;52144;48.040;-1.594;2023-11-19T07:39:50;101290.00;;;15.98;97.01
46211;BME280;52144;48.040;-1.594;2023-11-19T07:42:17;101289.00;;;16.29;92.16
46211;BME280;52144;48.040;-1.594;2023-11-19T07:44:45;101288.81;;;16.32;96.06
46211;BME280;52144;48.040;-1.594;2023-11-19T07:47:13;101292.47;;;16.31;96.49
46211;BME280;52144;48.040;-1.594;2023-11-19T07:49:41;101297.72;;;16.63;94.21
46211;BME280;52144;48.040;-1.594;2023-11-19T07:52:11;101293.63;;;16.41;95.41
46211;BME280;52144;48.040;-1.594;2023-11-19T07:54:41;101295.16;;;16.31;95.37
46211;BME280;52144;48.040;-1.594;2023-11-19T07:57:11;101300.75;;;16.42;95.79
46211;BME280;52144;48.040;-1.594;2023-11-19T07:59:39;101299.44;;;16.19;96.30
46211;BME280;52144;48.040;-1.594;2023-11-19T08:02:07;101304.41;;;16.56;94.38
46211;BME280;52144;48.040;-1.594;2023-11-19T08:04:35;101306.03;;;16.58;92.95
46211;BME280;52144;48.040;-1.594;2023-11-19T08:07:06;101303.78;;;16.36;93.87
46211;BME280;52144;48.040;-1.594;2023-11-19T08:09:34;101310.66;;;16.71;94.05
46211;BME280;52144;48.040;-1.594;2023-11-19T08:12:02;101303.13;;;16.33;94.57
46211;BME280;52144;48.040;-1.594;2023-11-19T08:14:32;101315.13;;;16.27;97.87
46211;BME280;52144;48.040;-1.594;2023-11-19T08:17:00;101309.78;;;16.56;94.68
46211;BME280;52144;48.040;-1.594;2023-11-19T08:19:27;101315.16;;;16.41;96.53
46211;BME280;52144;48.040;-1.594;2023-11-19T08:21:58;101320.94;;;16.50;96.15
46211;BME280;52144;48.040;-1.594;2023-11-19T08:24:25;101329.22;;;16.75;94.03
46211;BME280;52144;48.040;-1.594;2023-11-19T08:26:54;101327.47;;;16.60;95.37
46211;BME280;52144;48.040;-1.594;2023-11-19T08:29:24;101327.06;;;16.52;94.32
46211;BME280;52144;48.040;-1.594;2023-11-19T08:31:53;101329.19;;;16.47;93.44
46211;BME280;52144;48.040;-1.594;2023-11-19T08:34:21;101325.16;;;16.09;98.89
46211;BME280;52144;48.040;-1.594;2023-11-19T08:36:50;101333.97;;;16.41;93.38
46211;BME280;52144;48.040;-1.594;2023-11-19T08:39:19;101335.47;;;16.61;92.36
46211;BME280;52144;48.040;-1.594;2023-11-19T08:41:47;101329.91;;;15.90;96.62
46211;BME280;52144;48.040;-1.594;2023-11-19T08:44:15;101325.56;;;16.17;93.04
46211;BME280;52144;48.040;-1.594;2023-11-19T08:46:47;101315.47;;;16.07;96.41
46211;BME280;52144;48.040;-1.594;2023-11-19T08:49:16;101326.38;;;16.03;96.90
46211;BME280;52144;48.040;-1.594;2023-11-19T08:51:44;101320.63;;;16.10;96.33
46211;BME280;52144;48.040;-1.594;2023-11-19T08:54:12;101324.13;;;16.26;94.65
46211;BME280;52144;48.040;-1.594;2023-11-19T08:56:40;101323.06;;;16.14;96.92
46211;BME280;52144;48.040;-1.594;2023-11-19T08:59:08;101320.69;;;16.38;95.57
46211;BME280;52144;48.040;-1.594;2023-11-19T09:01:36;101317.59;;;15.86;99.17
46211;BME280;52144;48.040;-1.594;2023-11-19T09:04:04;101331.41;;;16.54;94.74
46211;BME280;52144;48.040;-1.594;2023-11-19T09:06:35;101324.03;;;16.28;96.07
46211;BME280;52144;48.040;-1.594;2023-11-19T09:09:03;101329.78;;;16.21;96.89
46211;BME280;52144;48.040;-1.594;2023-11-19T09:11:32;101331.28;;;15.81;98.92
46211;BME280;52144;48.040;-1.594;2023-11-19T09:13:59;101338.19;;;16.31;94.48
46211;BME280;52144;48.040;-1.594;2023-11-19T09:16:27;101338.47;;;15.96;96.97
46211;BME280;52144;48.040;-1.594;2023-11-19T09:18:55;101336.94;;;16.81;93.08
46211;BME280;52144;48.040;-1.594;2023-11-19T09:21:24;101345.03;;;16.07;97.10
46211;BME280;52144;48.040;-1.594;2023-11-19T09:23:53;101340.88;;;16.31;94.36
46211;BME280;52144;48.040;-1.594;2023-11-19T09:26:21;101348.25;;;15.97;97.08
46211;BME280;52144;48.040;-1.594;2023-11-19T09:28:49;101353.97;;;16.52;94.29
46211;BME280;52144;48.040;-1.594;2023-11-19T09:31:17;101358.19;;;16.41;95.34
46211;BME280;52144;48.040;-1.594;2023-11-19T09:33:45;101354.72;;;16.84;92.63
46211;BME280;52144;48.040;-1.594;2023-11-19T09:36:13;101354.53;;;16.87;91.77
46211;BME280;52144;48.040;-1.594;2023-11-19T09:38:43;101353.44;;;16.75;92.82
46211;BME280;52144;48.040;-1.594;2023-11-19T09:41:12;101346.81;;;16.36;93.30
46211;BME280;52144;48.040;-1.594;2023-11-19T09:43:41;101350.56;;;16.78;90.64
46211;BME280;52144;48.040;-1.594;2023-11-19T09:46:09;101341.94;;;17.16;90.34
46211;BME280;52144;48.040;-1.594;2023-11-19T09:48:38;101342.81;;;17.02;89.66
46211;BME280;52144;48.040;-1.594;2023-11-19T09:51:07;101340.28;;;16.40;93.01
46211;BME280;52144;48.040;-1.594;2023-11-19T09:53:35;101352.63;;;16.44;93.57
46211;BME280;52144;48.040;-1.594;2023-11-19T09:56:04;101357.41;;;16.98;91.02
46211;BME280;52144;48.040;-1.594;2023-11-19T09:58:34;101354.03;;;17.09;89.52
46211;BME280;52144;48.040;-1.594;2023-11-19T10:01:02;101348.28;;;16.87;91.50
46211;BME280;52144;48.040;-1.594;2023-11-19T10:03:36;101359.63;;;16.92;90.39
46211;BME280;52144;48.040;-1.594;2023-11-19T10:06:07;101357.88;;;17.05;90.88
46211;BME280;52144;48.040;-1.594;2023-11-19T10:08:37;101368.63;;;16.76;90.80
46211;BME280;52144;48.040;-1.594;2023-11-19T10:11:05;101379.00;;;17.40;88.30
46211;BME280;52144;48.040;-1.594;2023-11-19T10:13:36;101370.03;;;17.12;89.00
46211;BME280;52144;48.040;-1.594;2023-11-19T10:16:08;101369.47;;;16.77;91.33
46211;BME280;52144;48.040;-1.594;2023-11-19T10:18:38;101371.25;;;17.07;89.36
46211;BME280;52144;48.040;-1.594;2023-11-19T10:21:12;101371.22;;;16.78;90.92
46211;BME280;52144;48.040;-1.594;2023-11-19T10:23:49;101370.91;;;17.54;87.72
46211;BME280;52144;48.040;-1.594;2023-11-19T10:26:19;101374.63;;;17.24;89.13
46211;BME280;52144;48.040;-1.594;2023-11-19T10:28:48;101377.28;;;17.53;86.89
46211;BME280;52144;48.040;-1.594;2023-11-19T10:31:17;101381.28;;;17.89;86.54
46211;BME280;52144;48.040;-1.594;2023-11-19T10:33:45;101383.25;;;17.44;87.47
46211;BME280;52144;48.040;-1.594;2023-11-19T10:36:14;101376.31;;;17.96;84.70
46211;BME280;52144;48.040;-1.594;2023-11-19T10:38:51;101378.22;;;16.80;89.09
46211;BME280;52144;48.040;-1.594;2023-11-19T10:41:29;101377.53;;;16.77;89.69
46211;BME280;52144;48.040;-1.594;2023-11-19T10:43:59;101378.56;;;17.04;88.79
46211;BME280;52144;48.040;-1.594;2023-11-19T10:46:37;101374.91;;;17.34;86.58
46211;BME280;52144;48.040;-1.594;2023-11-19T10:49:06;101375.75;;;17.76;84.54
46211;BME280;52144;48.040;-1.594;2023-11-19T10:51:34;101365.97;;;17.75;85.24
46211;BME280;52144;48.040;-1.594;2023-11-19T10:54:03;101356.63;;;17.67;85.02
46211;BME280;52144;48.040;-1.594;2023-11-19T10:56:33;101352.81;;;17.98;83.42
46211;BME280;52144;48.040;-1.594;2023-11-19T10:59:02;101348.69;;;17.92;84.64
46211;BME280;52144;48.040;-1.594;2023-11-19T11:01:52;101356.06;;;17.34;86.39
46211;BME280;52144;48.040;-1.594;2023-11-19T11:04:23;101352.47;;;17.34;86.94
46211;BME280;52144;48.040;-1.594;2023-11-19T11:06:54;101328.41;;;17.87;82.92
46211;BME280;52144;48.040;-1.594;2023-11-19T11:09:22;101334.97;;;18.10;83.50
46211;BME280;52144;48.040;-1.594;2023-11-19T11:11:51;101329.16;;;18.41;80.42
46211;BME280;52144;48.040;-1.594;2023-11-19T11:14:21;101329.66;;;17.81;82.83
46211;BME280;52144;48.040;-1.594;2023-11-19T11:16:49;101328.50;;;17.71;82.42
46211;BME280;52144;48.040;-1.594;2023-11-19T11:19:18;101320.25;;;17.74;82.65
46211;BME280;52144;48.040;-1.594;2023-11-19T11:21:49;101322.84;;;18.02;82.18
46211;BME280;52144;48.040;-1.594;2023-11-19T11:24:30;101320.72;;;18.08;80.98
46211;BME280;52144;48.040;-1.594;2023-11-19T11:27:14;101320.13;;;17.90;82.91
46211;BME280;52144;48.040;-1.594;2023-11-19T11:29:52;101316.75;;;17.86;83.01
46211;BME280;52144;48.040;-1.594;2023-11-19T11:32:32;101325.41;;;17.91;80.77
46211;BME280;52144;48.040;-1.594;2023-11-19T11:35:12;101315.94;;;17.98;81.52
46211;BME280;52144;48.040;-1.594;2023-11-19T11:37:45;101305.66;;;18.31;79.74
46211;BME280;52144;48.040;-1.594;2023-11-19T11:40:14;101327.25;;;18.56;79.42
46211;BME280;52144;48.040;-1.594;2023-11-19T11:42:44;101323.59;;;18.04;80.37
46211;BME280;52144;48.040;-1.594;2023-11-19T11:45:14;101320.31;;;18.39;79.26
46211;BME280;52144;48.040;-1.594;2023-11-19T11:48:11;101313.00;;;18.67;78.49
46211;BME280;52144;48.040;-1.594;2023-11-19T11:50:53;101311.13;;;18.29;77.47
46211;BME280;52144;48.040;-1.594;2023-11-19T11:53:22;101317.13;;;17.80;78.77
46211;BME280;52144;48.040;-1.594;2023-11-19T11:55:55;101306.25;;;17.54;77.88
46211;BME280;52144;48.040;-1.594;2023-11-19T11:58:27;101305.41;;;18.21;76.45
46211;BME280;52144;48.040;-1.594;2023-11-19T12:01:01;101309.06;;;17.80;76.37
46211;BME280;52144;48.040;-1.594;2023-11-19T12:03:30;101303.31;;;17.72;77.76
46211;BME280;52144;48.040;-1.594;2023-11-19T12:05:58;101293.88;;;17.64;75.94
46211;BME280;52144;48.040;-1.594;2023-11-19T12:08:28;101292.09;;;17.92;74.57
46211;BME280;52144;48.040;-1.594;2023-11-19T12:10:57;101299.66;;;17.73;76.17
46211;BME280;52144;48.040;-1.594;2023-11-19T12:13:57;101300.41;;;17.48;77.26
46211;BME280;52144;48.040;-1.594;2023-11-19T12:16:30;101294.28;;;17.73;75.41
46211;BME280;52144;48.040;-1.594;2023-11-19T12:19:03;101287.31;;;17.69;74.84
46211;BME280;52144;48.040;-1.594;2023-11-19T12:21:32;101281.72;;;17.59;72.80
46211;BME280;52144;48.040;-1.594;2023-11-19T12:24:06;101283.50;;;17.73;71.11
46211;BME280;52144;48.040;-1.594;2023-11-19T12:26:38;101286.97;;;18.66;69.81
46211;BME280;52144;48.040;-1.594;2023-11-19T12:29:07;101284.50;;;18.63;70.35
46211;BME280;52144;48.040;-1.594;2023-11-19T12:31:37;101283.88;;;18.85;68.88
46211;BME280;52144;48.040;-1.594;2023-11-19T12:34:07;101282.84;;;18.99;68.99
46211;BME280;52144;48.040;-1.594;2023-11-19T12:36:39;101283.19;;;19.07;69.91
46211;BME280;52144;48.040;-1.594;2023-11-19T12:39:08;101290.53;;;19.42;69.22
46211;BME280;52144;48.040;-1.594;2023-11-19T12:41:49;101280.28;;;18.59;69.64
46211;BME280;52144;48.040;-1.594;2023-11-19T12:44:17;101281.59;;;18.92;69.00
46211;BME280;52144;48.040;-1.594;2023-11-19T12:46:47;101287.94;;;18.39;70.16
46211;BME280;52144;48.040;-1.594;2023-11-19T12:49:26;101279.09;;;18.63;69.97